createdAt,value
2019-04-29T08:02:40.777Z,50.19
2019-04-29T08:04:41.199Z,50.70
2019-04-29T08:06:43.117Z,50.44
2019-04-29T08:08:54.328Z,50.12
2019-04-29T08:10:54.035Z,47.92
2019-04-29T08:12:43.295Z,48.22
2019-04-29T08:14:43.816Z,47.53
2019-04-29T08:16:44.303Z,46.91
2019-04-29T08:18:44.803Z,47.04
2019-04-29T08:20:45.312Z,47.36
2019-04-29T08:22:45.866Z,48.23
2019-04-29T08:24:50.457Z,49.03
2019-04-29T08:26:47.642Z,48.11
2019-04-29T08:28:47.409Z,49.24
2019-04-29T08:30:47.952Z,49.31
2019-04-29T08:32:48.419Z,50.05
2019-04-29T08:34:48.957Z,50.19
2019-04-29T08:36:49.414Z,50.65
2019-04-29T08:38:49.957Z,50.91
2019-04-29T08:40:51.681Z,50.44
2019-04-29T08:42:51.002Z,51.12
2019-04-29T08:44:54.696Z,50.37
2019-04-29T08:46:52.861Z,51.12
2019-04-29T08:48:52.704Z,51.34
2019-04-29T08:50:53.308Z,51.72
2019-04-29T08:52:53.793Z,51.33
2019-04-29T08:54:55.487Z,51.44
2019-04-29T08:57:02.772Z,51.61
2019-04-29T08:58:55.698Z,50.82
2019-04-29T09:00:57.588Z,50.44
2019-04-29T09:02:56.887Z,50.20
2019-04-29T09:04:57.418Z,49.96
2019-04-29T09:07:11.633Z,50.20
2019-04-29T09:08:59.639Z,50.58
2019-04-29T09:10:59.174Z,50.70
2019-04-29T09:12:59.620Z,49.20
2019-04-29T09:15:00.188Z,48.78
2019-04-29T09:17:00.752Z,47.41
2019-04-29T09:19:01.218Z,48.77
2019-04-29T09:21:01.723Z,48.38
2019-04-29T11:25:40.823Z,46.91
2019-04-29T11:27:41.254Z,47.03
2019-04-29T11:29:41.786Z,46.91
2019-04-29T11:31:42.246Z,46.89
2019-04-29T11:33:42.748Z,46.96
2019-04-29T11:35:43.331Z,46.74
2019-04-29T11:37:43.890Z,47.09
2019-04-29T11:39:46.231Z,46.59
2019-04-29T11:41:44.810Z,47.22
2019-04-29T11:43:46.745Z,46.79
2019-04-29T11:45:46.103Z,47.37
2019-04-29T11:47:46.589Z,47.17
2019-04-29T13:07:17.122Z,47.11
2019-04-29T13:09:18.217Z,47.23
2019-04-29T13:11:19.099Z,47.12
2019-04-29T13:13:20.124Z,46.89
2019-04-29T13:15:19.153Z,47.80
2019-04-29T13:17:19.649Z,47.01
2019-04-29T13:19:20.684Z,47.59
2019-04-29T13:21:20.566Z,47.54
2019-04-29T13:23:33.654Z,47.61
2019-04-29T13:25:21.718Z,47.32
2019-04-29T13:27:25.394Z,48.20
2019-04-29T13:29:27.292Z,47.61
2019-04-29T13:31:37.403Z,47.89
2019-04-29T13:33:23.683Z,47.24
2019-04-29T13:35:24.149Z,47.91
2019-04-29T13:37:24.722Z,47.77
2019-04-29T13:39:39.193Z,48.17
2019-04-29T13:41:26.012Z,47.68
2019-04-29T13:43:27.206Z,47.73
2019-04-29T13:45:26.679Z,47.81
2019-04-29T13:47:30.729Z,47.64
2019-04-29T13:49:27.672Z,47.40
2019-04-29T13:51:35.737Z,48.06
2019-04-29T13:53:28.686Z,47.64
2019-04-29T13:55:47.215Z,48.16
2019-04-29T13:57:29.705Z,47.49
2019-04-29T13:59:30.214Z,47.91
2019-04-29T14:01:33.173Z,47.88
2019-04-29T14:03:31.219Z,47.64
2019-04-29T14:05:32.523Z,47.42
2019-04-29T14:07:32.276Z,47.54
2019-04-29T14:09:35.147Z,47.25
2019-04-29T14:11:33.306Z,47.02
2019-04-29T14:13:33.868Z,47.17
2019-04-29T14:15:38.320Z,47.52
2019-04-29T14:17:35.625Z,46.94
2019-04-29T14:19:41.070Z,46.95
2019-04-29T14:21:35.800Z,47.00
2019-04-29T14:23:36.351Z,47.06
2019-04-29T14:25:36.820Z,46.81
2019-04-29T14:27:37.377Z,47.45
2019-04-29T14:29:37.899Z,47.20
2019-04-29T14:31:38.411Z,46.84
2019-04-29T14:33:38.901Z,47.21
2019-04-29T14:35:39.391Z,46.95
2019-04-29T14:37:54.075Z,47.07
2019-04-29T14:39:40.417Z,47.28
2019-04-29T14:41:40.885Z,46.96
2019-04-29T14:43:41.391Z,47.09
2019-04-29T14:45:41.947Z,47.73
2019-04-29T14:47:42.481Z,46.88
2019-04-29T14:49:42.919Z,47.24
2019-04-29T14:51:43.470Z,46.92
2019-04-29T14:53:55.686Z,47.73
2019-04-29T14:55:44.419Z,46.88
2019-04-29T14:57:44.952Z,46.60
2019-04-29T14:59:45.569Z,47.01
2019-04-29T15:01:46.014Z,47.21
2019-04-29T15:03:48.164Z,47.06
2019-04-29T15:05:46.985Z,46.60
2019-04-29T15:07:47.467Z,47.34
2019-04-29T15:09:51.356Z,47.62
2019-04-29T15:11:48.483Z,47.29
2019-04-29T15:13:49.123Z,47.01
2019-04-29T15:16:03.521Z,47.10
2019-04-29T15:17:50.167Z,47.11
2019-04-29T15:19:54.921Z,47.29
2019-04-29T15:21:51.208Z,47.62
2019-04-29T15:23:51.804Z,47.55
2019-04-29T15:25:52.248Z,47.48
2019-04-29T15:27:52.852Z,47.96
2019-04-29T15:29:53.290Z,47.85
2019-04-29T15:31:53.934Z,47.54
2019-04-29T15:33:54.472Z,48.04
2019-04-29T15:35:59.689Z,47.89
2019-04-29T15:37:55.643Z,48.24
2019-04-29T15:39:58.252Z,48.29
2019-04-29T15:41:56.713Z,47.80
2019-04-29T15:44:07.186Z,48.12
2019-04-29T15:45:57.781Z,48.40
2019-04-29T15:47:58.291Z,48.23
2019-04-29T15:50:00.776Z,48.04
2019-04-29T15:51:59.503Z,48.45
2019-04-29T15:54:00.075Z,48.35
2019-04-29T15:58:01.398Z,48.28
2019-04-29T16:00:12.573Z,48.74
2019-04-29T16:02:04.185Z,48.41
2019-04-29T16:04:02.850Z,48.51
2019-04-29T16:08:03.995Z,48.32
2019-04-29T16:10:04.545Z,48.47
2019-04-29T16:12:13.752Z,48.87
2019-04-29T16:14:09.560Z,49.20
2019-04-29T16:16:06.124Z,49.41
2019-04-29T16:18:10.645Z,49.24
2019-04-29T16:20:07.116Z,49.33
2019-04-29T16:22:07.625Z,49.54
2019-04-29T16:24:25.129Z,49.82
2019-04-29T16:26:08.592Z,49.48
2019-04-29T16:28:09.130Z,49.51
2019-04-29T16:30:09.584Z,50.35
2019-04-29T16:32:10.072Z,49.53
2019-04-29T17:18:08.763Z,50.63
2019-04-29T17:20:09.349Z,50.96
2019-04-29T17:22:25.003Z,50.86
2019-04-29T17:24:10.561Z,51.52
2019-04-29T17:26:11.069Z,51.70
2019-04-29T17:35:14.928Z,48.13
